sensor_id;sensor_type;location;lat;lon;timestamp;temperature;humidity
14252;DHT22;7210;51.502;10.722;2023-05-07T00:00:20;11.40;99.90
14252;DHT22;7210;51.502;10.722;2023-05-07T00:02:48;11.40;99.90
14252;DHT22;7210;51.502;10.722;2023-05-07T00:05:16;11.40;99.90
14252;DHT22;7210;51.502;10.722;2023-05-07T00:07:44;11.40;99.90
14252;DHT22;7210;51.502;10.722;2023-05-07T00:10:11;11.40;99.90
14252;DHT22;7210;51.502;10.722;2023-05-07T00:12:41;11.30;99.90
14252;DHT22;7210;51.502;10.722;2023-05-07T00:15:10;11.40;99.90
14252;DHT22;7210;51.502;10.722;2023-05-07T00:17:47;11.30;99.90
14252;DHT22;7210;51.502;10.722;2023-05-07T00:20:25;11.20;99.90
14252;DHT22;7210;51.502;10.722;2023-05-07T00:22:53;11.20;99.90
14252;DHT22;7210;51.502;10.722;2023-05-07T00:25:20;11.10;99.90
14252;DHT22;7210;51.502;10.722;2023-05-07T00:27:48;11.10;99.90
14252;DHT22;7210;51.502;10.722;2023-05-07T00:30:16;11.10;99.90
14252;DHT22;7210;51.502;10.722;2023-05-07T00:32:43;11.10;99.90
14252;DHT22;7210;51.502;10.722;2023-05-07T00:35:11;11.20;99.90
14252;DHT22;7210;51.502;10.722;2023-05-07T00:37:41;11.10;99.90
14252;DHT22;7210;51.502;10.722;2023-05-07T00:40:14;11.00;99.90
14252;DHT22;7210;51.502;10.722;2023-05-07T00:42:41;11.00;99.90
14252;DHT22;7210;51.502;10.722;2023-05-07T00:45:14;11.00;99.90
14252;DHT22;7210;51.502;10.722;2023-05-07T00:47:46;11.00;99.90
14252;DHT22;7210;51.502;10.722;2023-05-07T00:50:13;10.90;99.90
14252;DHT22;7210;51.502;10.722;2023-05-07T00:52:40;10.90;99.90
14252;DHT22;7210;51.502;10.722;2023-05-07T00:55:12;10.90;99.90
14252;DHT22;7210;51.502;10.722;2023-05-07T00:57:46;10.90;99.90
14252;DHT22;7210;51.502;10.722;2023-05-07T01:00:18;10.90;99.90
14252;DHT22;7210;51.502;10.722;2023-05-07T01:02:55;10.80;99.90
14252;DHT22;7210;51.502;10.722;2023-05-07T01:05:27;10.80;99.90
14252;DHT22;7210;51.502;10.722;2023-05-07T01:07:57;10.70;99.90
14252;DHT22;7210;51.502;10.722;2023-05-07T01:10:25;10.60;99.90
14252;DHT22;7210;51.502;10.722;2023-05-07T01:12:53;10.60;99.90
14252;DHT22;7210;51.502;10.722;2023-05-07T01:15:23;10.60;99.90
14252;DHT22;7210;51.502;10.722;2023-05-07T01:17:50;10.60;99.90
14252;DHT22;7210;51.502;10.722;2023-05-07T01:20:24;10.60;99.90
14252;DHT22;7210;51.502;10.722;2023-05-07T01:23:01;10.60;99.90
14252;DHT22;7210;51.502;10.722;2023-05-07T01:25:31;10.50;99.90
14252;DHT22;7210;51.502;10.722;2023-05-07T01:28:05;10.50;99.90
14252;DHT22;7210;51.502;10.722;2023-05-07T01:30:42;10.50;99.90
14252;DHT22;7210;51.502;10.722;2023-05-07T01:33:20;10.50;99.90
14252;DHT22;7210;51.502;10.722;2023-05-07T01:35:50;10.50;99.90
14252;DHT22;7210;51.502;10.722;2023-05-07T01:38:21;10.50;99.90
14252;DHT22;7210;51.502;10.722;2023-05-07T01:40:50;10.50;99.90
14252;DHT22;7210;51.502;10.722;2023-05-07T01:43:19;10.50;99.90
14252;DHT22;7210;51.502;10.722;2023-05-07T01:45:47;10.50;99.90
14252;DHT22;7210;51.502;10.722;2023-05-07T01:48:18;10.50;99.90
14252;DHT22;7210;51.502;10.722;2023-05-07T01:50:51;10.40;99.90
14252;DHT22;7210;51.502;10.722;2023-05-07T01:53:47;10.40;99.90
14252;DHT22;7210;51.502;10.722;2023-05-07T01:56:19;10.20;99.90
14252;DHT22;7210;51.502;10.722;2023-05-07T01:58:47;10.20;99.90
14252;DHT22;7210;51.502;10.722;2023-05-07T02:01:21;10.20;99.90
14252;DHT22;7210;51.502;10.722;2023-05-07T02:03:49;10.20;99.90
14252;DHT22;7210;51.502;10.722;2023-05-07T02:06:22;10.20;99.90
14252;DHT22;7210;51.502;10.722;2023-05-07T02:08:53;10.30;99.90
14252;DHT22;7210;51.502;10.722;2023-05-07T02:11:21;10.20;99.90
14252;DHT22;7210;51.502;10.722;2023-05-07T02:13:51;10.20;99.90
14252;DHT22;7210;51.502;10.722;2023-05-07T02:16:23;10.20;99.90
14252;DHT22;7210;51.502;10.722;2023-05-07T02:18:57;10.30;99.90
14252;DHT22;7210;51.502;10.722;2023-05-07T02:21:25;10.20;99.90
14252;DHT22;7210;51.502;10.722;2023-05-07T02:23:59;10.20;99.90
14252;DHT22;7210;51.502;10.722;2023-05-07T02:26:26;10.30;99.90
14252;DHT22;7210;51.502;10.722;2023-05-07T02:28:53;10.30;99.90
14252;DHT22;7210;51.502;10.722;2023-05-07T02:31:21;10.40;99.90
14252;DHT22;7210;51.502;10.722;2023-05-07T02:33:48;10.30;99.90
14252;DHT22;7210;51.502;10.722;2023-05-07T02:36:16;10.30;99.90
14252;DHT22;7210;51.502;10.722;2023-05-07T02:42:02;10.30;99.90
14252;DHT22;7210;51.502;10.722;2023-05-07T02:44:45;10.20;99.90
14252;DHT22;7210;51.502;10.722;2023-05-07T02:47:16;10.20;99.90
14252;DHT22;7210;51.502;10.722;2023-05-07T02:49:44;10.30;99.90
14252;DHT22;7210;51.502;10.722;2023-05-07T02:52:12;10.30;99.90
14252;DHT22;7210;51.502;10.722;2023-05-07T02:54:41;10.30;99.90
14252;DHT22;7210;51.502;10.722;2023-05-07T02:57:08;10.30;99.90
14252;DHT22;7210;51.502;10.722;2023-05-07T02:59:35;10.30;99.90
14252;DHT22;7210;51.502;10.722;2023-05-07T03:02:03;10.30;99.90
14252;DHT22;7210;51.502;10.722;2023-05-07T03:04:31;10.30;99.90
14252;DHT22;7210;51.502;10.722;2023-05-07T03:06:58;10.40;99.90
14252;DHT22;7210;51.502;10.722;2023-05-07T03:09:25;10.40;99.90
14252;DHT22;7210;51.502;10.722;2023-05-07T03:11:54;10.30;99.90
14252;DHT22;7210;51.502;10.722;2023-05-07T03:14:21;10.30;99.90
14252;DHT22;7210;51.502;10.722;2023-05-07T03:16:49;10.20;99.90
14252;DHT22;7210;51.502;10.722;2023-05-07T03:19:17;10.30;99.90
14252;DHT22;7210;51.502;10.722;2023-05-07T03:21:44;10.20;99.90
14252;DHT22;7210;51.502;10.722;2023-05-07T03:24:11;10.20;99.90
14252;DHT22;7210;51.502;10.722;2023-05-07T03:26:38;10.20;99.90
14252;DHT22;7210;51.502;10.722;2023-05-07T03:29:11;10.30;99.90
14252;DHT22;7210;51.502;10.722;2023-05-07T03:31:39;10.30;99.90
14252;DHT22;7210;51.502;10.722;2023-05-07T03:34:07;10.30;99.90
14252;DHT22;7210;51.502;10.722;2023-05-07T03:36:34;10.30;99.90
14252;DHT22;7210;51.502;10.722;2023-05-07T03:39:03;10.30;99.90
14252;DHT22;7210;51.502;10.722;2023-05-07T03:41:36;10.30;99.90
14252;DHT22;7210;51.502;10.722;2023-05-07T03:44:03;10.20;99.90
14252;DHT22;7210;51.502;10.722;2023-05-07T03:46:33;10.20;99.90
14252;DHT22;7210;51.502;10.722;2023-05-07T03:49:01;10.20;99.90
14252;DHT22;7210;51.502;10.722;2023-05-07T03:51:33;10.20;99.90
14252;DHT22;7210;51.502;10.722;2023-05-07T03:54:02;10.20;99.90
14252;DHT22;7210;51.502;10.722;2023-05-07T03:56:33;10.20;99.90
14252;DHT22;7210;51.502;10.722;2023-05-07T03:59:01;10.20;99.90
14252;DHT22;7210;51.502;10.722;2023-05-07T04:01:28;10.20;99.90
14252;DHT22;7210;51.502;10.722;2023-05-07T04:03:57;10.10;99.90
14252;DHT22;7210;51.502;10.722;2023-05-07T04:06:25;10.20;99.90
14252;DHT22;7210;51.502;10.722;2023-05-07T04:08:58;10.20;99.90
14252;DHT22;7210;51.502;10.722;2023-05-07T04:11:26;10.10;99.90
14252;DHT22;7210;51.502;10.722;2023-05-07T04:13:54;10.10;99.90
14252;DHT22;7210;51.502;10.722;2023-05-07T04:16:22;10.10;99.90
14252;DHT22;7210;51.502;10.722;2023-05-07T04:18:50;10.10;99.90
14252;DHT22;7210;51.502;10.722;2023-05-07T04:21:20;10.10;99.90
14252;DHT22;7210;51.502;10.722;2023-05-07T04:23:50;10.10;99.90
14252;DHT22;7210;51.502;10.722;2023-05-07T04:26:17;10.10;99.90
14252;DHT22;7210;51.502;10.722;2023-05-07T04:28:47;10.10;99.90
14252;DHT22;7210;51.502;10.722;2023-05-07T04:31:15;10.10;99.90
14252;DHT22;7210;51.502;10.722;2023-05-07T04:33:47;10.10;99.90
14252;DHT22;7210;51.502;10.722;2023-05-07T04:36:15;10.10;99.90
14252;DHT22;7210;51.502;10.722;2023-05-07T04:38:58;10.10;99.90
14252;DHT22;7210;51.502;10.722;2023-05-07T04:41:26;10.20;99.90
14252;DHT22;7210;51.502;10.722;2023-05-07T04:43:53;10.20;99.90
14252;DHT22;7210;51.502;10.722;2023-05-07T04:46:23;10.20;99.90
14252;DHT22;7210;51.502;10.722;2023-05-07T04:48:51;10.20;99.90
14252;DHT22;7210;51.502;10.722;2023-05-07T04:51:21;10.20;99.90
14252;DHT22;7210;51.502;10.722;2023-05-07T04:53:49;10.20;99.90
14252;DHT22;7210;51.502;10.722;2023-05-07T04:56:18;10.20;99.90
14252;DHT22;7210;51.502;10.722;2023-05-07T04:58:46;10.20;99.90
14252;DHT22;7210;51.502;10.722;2023-05-07T05:01:17;10.10;99.90
14252;DHT22;7210;51.502;10.722;2023-05-07T05:03:44;10.20;99.90
14252;DHT22;7210;51.502;10.722;2023-05-07T05:06:11;10.20;99.90
14252;DHT22;7210;51.502;10.722;2023-05-07T05:08:39;10.10;99.90
14252;DHT22;7210;51.502;10.722;2023-05-07T05:11:06;10.00;99.90
14252;DHT22;7210;51.502;10.722;2023-05-07T05:13:37;10.00;99.90
14252;DHT22;7210;51.502;10.722;2023-05-07T05:16:11;10.00;99.90
14252;DHT22;7210;51.502;10.722;2023-05-07T05:18:39;9.90;99.90
14252;DHT22;7210;51.502;10.722;2023-05-07T05:21:08;9.80;99.90
14252;DHT22;7210;51.502;10.722;2023-05-07T05:23:36;9.80;99.90
14252;DHT22;7210;51.502;10.722;2023-05-07T05:26:03;9.80;99.90
14252;DHT22;7210;51.502;10.722;2023-05-07T05:28:32;9.80;99.90
14252;DHT22;7210;51.502;10.722;2023-05-07T05:31:01;9.70;99.90
14252;DHT22;7210;51.502;10.722;2023-05-07T05:33:32;9.70;99.90
14252;DHT22;7210;51.502;10.722;2023-05-07T05:36:03;9.70;99.90
14252;DHT22;7210;51.502;10.722;2023-05-07T05:38:32;9.70;99.90
14252;DHT22;7210;51.502;10.722;2023-05-07T05:40:59;9.70;99.90
14252;DHT22;7210;51.502;10.722;2023-05-07T05:43:28;9.80;99.90
14252;DHT22;7210;51.502;10.722;2023-05-07T05:45:56;9.80;99.90
14252;DHT22;7210;51.502;10.722;2023-05-07T05:48:24;9.80;99.90
14252;DHT22;7210;51.502;10.722;2023-05-07T05:50:52;9.80;99.90
14252;DHT22;7210;51.502;10.722;2023-05-07T05:53:19;9.90;99.90
14252;DHT22;7210;51.502;10.722;2023-05-07T05:55:47;9.80;99.90
14252;DHT22;7210;51.502;10.722;2023-05-07T05:58:14;9.90;99.90
14252;DHT22;7210;51.502;10.722;2023-05-07T06:00:47;9.90;99.90
14252;DHT22;7210;51.502;10.722;2023-05-07T06:03:19;9.90;99.90
14252;DHT22;7210;51.502;10.722;2023-05-07T06:05:48;9.90;99.90
14252;DHT22;7210;51.502;10.722;2023-05-07T06:08:16;10.00;99.90
14252;DHT22;7210;51.502;10.722;2023-05-07T06:10:45;10.00;99.90
14252;DHT22;7210;51.502;10.722;2023-05-07T06:13:22;9.90;99.90
14252;DHT22;7210;51.502;10.722;2023-05-07T06:15:50;10.00;99.90
14252;DHT22;7210;51.502;10.722;2023-05-07T06:18:18;10.10;99.90
14252;DHT22;7210;51.502;10.722;2023-05-07T06:20:46;10.00;99.90
14252;DHT22;7210;51.502;10.722;2023-05-07T06:23:22;10.00;99.90
14252;DHT22;7210;51.502;10.722;2023-05-07T06:25:50;10.10;99.90
14252;DHT22;7210;51.502;10.722;2023-05-07T06:28:22;10.10;99.90
14252;DHT22;7210;51.502;10.722;2023-05-07T06:30:50;10.10;99.90
14252;DHT22;7210;51.502;10.722;2023-05-07T06:33:17;10.20;99.90
14252;DHT22;7210;51.502;10.722;2023-05-07T06:35:45;10.30;99.90
14252;DHT22;7210;51.502;10.722;2023-05-07T06:38:14;10.30;99.90
14252;DHT22;7210;51.502;10.722;2023-05-07T06:40:42;10.30;99.90
14252;DHT22;7210;51.502;10.722;2023-05-07T06:43:09;10.30;99.90
14252;DHT22;7210;51.502;10.722;2023-05-07T06:45:53;10.30;99.90
14252;DHT22;7210;51.502;10.722;2023-05-07T06:48:20;10.30;99.90
14252;DHT22;7210;51.502;10.722;2023-05-07T06:50:54;10.40;99.90
14252;DHT22;7210;51.502;10.722;2023-05-07T06:53:29;10.30;99.90
14252;DHT22;7210;51.502;10.722;2023-05-07T06:55:57;10.20;99.90
14252;DHT22;7210;51.502;10.722;2023-05-07T06:58:25;10.20;99.90
14252;DHT22;7210;51.502;10.722;2023-05-07T07:00:52;10.20;99.90
14252;DHT22;7210;51.502;10.722;2023-05-07T07:03:20;10.20;99.90
14252;DHT22;7210;51.502;10.722;2023-05-07T07:05:47;10.20;99.90
14252;DHT22;7210;51.502;10.722;2023-05-07T07:08:17;10.20;99.90
14252;DHT22;7210;51.502;10.722;2023-05-07T07:10:48;10.10;99.90
14252;DHT22;7210;51.502;10.722;2023-05-07T07:13:15;10.00;99.90
14252;DHT22;7210;51.502;10.722;2023-05-07T07:15:48;9.90;99.90
14252;DHT22;7210;51.502;10.722;2023-05-07T07:18:32;10.00;99.90
14252;DHT22;7210;51.502;10.722;2023-05-07T07:20:59;9.90;99.90
14252;DHT22;7210;51.502;10.722;2023-05-07T07:23:28;10.00;99.90
14252;DHT22;7210;51.502;10.722;2023-05-07T07:25:57;10.00;99.90
14252;DHT22;7210;51.502;10.722;2023-05-07T07:28:27;9.90;99.90
14252;DHT22;7210;51.502;10.722;2023-05-07T07:30:54;10.00;99.90
14252;DHT22;7210;51.502;10.722;2023-05-07T07:33:21;10.00;99.90
14252;DHT22;7210;51.502;10.722;2023-05-07T07:35:49;10.10;99.90
14252;DHT22;7210;51.502;10.722;2023-05-07T07:38:16;10.10;99.90
14252;DHT22;7210;51.502;10.722;2023-05-07T07:40:43;10.10;99.90
14252;DHT22;7210;51.502;10.722;2023-05-07T07:43:13;10.20;99.90
14252;DHT22;7210;51.502;10.722;2023-05-07T07:45:41;10.10;99.90
14252;DHT22;7210;51.502;10.722;2023-05-07T07:48:08;10.00;99.90
14252;DHT22;7210;51.502;10.722;2023-05-07T07:50:37;10.00;99.90
14252;DHT22;7210;51.502;10.722;2023-05-07T07:53:05;10.10;99.90
14252;DHT22;7210;51.502;10.722;2023-05-07T07:55:38;10.20;99.90
14252;DHT22;7210;51.502;10.722;2023-05-07T07:58:06;10.20;99.90
14252;DHT22;7210;51.502;10.722;2023-05-07T08:00:35;10.20;99.90
14252;DHT22;7210;51.502;10.722;2023-05-07T08:03:03;10.20;99.90
14252;DHT22;7210;51.502;10.722;2023-05-07T08:05:35;10.30;99.90
14252;DHT22;7210;51.502;10.722;2023-05-07T08:08:05;10.30;99.90
14252;DHT22;7210;51.502;10.722;2023-05-07T08:10:34;10.40;99.90
14252;DHT22;7210;51.502;10.722;2023-05-07T08:13:08;10.40;99.90
14252;DHT22;7210;51.502;10.722;2023-05-07T08:15:39;10.50;99.90
14252;DHT22;7210;51.502;10.722;2023-05-07T08:18:06;10.60;99.90
14252;DHT22;7210;51.502;10.722;2023-05-07T08:20:34;10.60;99.90
14252;DHT22;7210;51.502;10.722;2023-05-07T08:23:05;10.60;99.90
14252;DHT22;7210;51.502;10.722;2023-05-07T08:25:33;10.80;99.90
14252;DHT22;7210;51.502;10.722;2023-05-07T08:28:01;10.80;99.90
14252;DHT22;7210;51.502;10.722;2023-05-07T08:30:29;10.80;99.90
14252;DHT22;7210;51.502;10.722;2023-05-07T08:32:57;10.90;99.90
14252;DHT22;7210;51.502;10.722;2023-05-07T08:35:25;10.90;99.90
14252;DHT22;7210;51.502;10.722;2023-05-07T08:37:53;11.00;99.90
14252;DHT22;7210;51.502;10.722;2023-05-07T08:40:24;11.10;99.90
14252;DHT22;7210;51.502;10.722;2023-05-07T08:42:54;11.20;99.90
14252;DHT22;7210;51.502;10.722;2023-05-07T08:45:23;11.20;99.90
14252;DHT22;7210;51.502;10.722;2023-05-07T08:47:58;11.40;99.90
14252;DHT22;7210;51.502;10.722;2023-05-07T08:50:35;11.40;99.90
14252;DHT22;7210;51.502;10.722;2023-05-07T08:53:04;11.50;99.90
14252;DHT22;7210;51.502;10.722;2023-05-07T08:55:31;11.60;99.90
14252;DHT22;7210;51.502;10.722;2023-05-07T08:57:59;11.70;99.90
14252;DHT22;7210;51.502;10.722;2023-05-07T09:00:27;11.70;99.90
14252;DHT22;7210;51.502;10.722;2023-05-07T09:02:56;11.80;99.90
14252;DHT22;7210;51.502;10.722;2023-05-07T09:05:25;11.90;99.90
14252;DHT22;7210;51.502;10.722;2023-05-07T09:07:52;12.00;99.90
14252;DHT22;7210;51.502;10.722;2023-05-07T09:10:22;12.00;99.90
14252;DHT22;7210;51.502;10.722;2023-05-07T09:12:50;12.10;99.90
14252;DHT22;7210;51.502;10.722;2023-05-07T09:15:18;12.30;99.90
14252;DHT22;7210;51.502;10.722;2023-05-07T09:17:45;12.30;1.00
14252;DHT22;7210;51.502;10.722;2023-05-07T09:20:13;12.20;1.00
14252;DHT22;7210;51.502;10.722;2023-05-07T09:22:43;12.30;1.00
14252;DHT22;7210;51.502;10.722;2023-05-07T09:25:13;12.20;1.00
14252;DHT22;7210;51.502;10.722;2023-05-07T09:27:42;12.20;1.00
14252;DHT22;7210;51.502;10.722;2023-05-07T09:30:10;12.10;1.00
14252;DHT22;7210;51.502;10.722;2023-05-07T09:32:38;12.10;1.00
14252;DHT22;7210;51.502;10.722;2023-05-07T09:35:15;12.20;1.00
14252;DHT22;7210;51.502;10.722;2023-05-07T09:37:44;12.30;1.00
14252;DHT22;7210;51.502;10.722;2023-05-07T09:40:20;12.30;1.00
14252;DHT22;7210;51.502;10.722;2023-05-07T09:42:49;12.30;1.00
14252;DHT22;7210;51.502;10.722;2023-05-07T09:45:22;12.30;1.00
14252;DHT22;7210;51.502;10.722;2023-05-07T09:47:54;12.30;1.00
14252;DHT22;7210;51.502;10.722;2023-05-07T09:50:26;12.20;1.00
14252;DHT22;7210;51.502;10.722;2023-05-07T09:52:57;12.30;1.00
14252;DHT22;7210;51.502;10.722;2023-05-07T09:55:25;12.40;1.00
14252;DHT22;7210;51.502;10.722;2023-05-07T09:57:53;12.50;1.00
14252;DHT22;7210;51.502;10.722;2023-05-07T10:00:22;12.60;1.00
14252;DHT22;7210;51.502;10.722;2023-05-07T10:03:00;12.70;1.00
14252;DHT22;7210;51.502;10.722;2023-05-07T10:05:37;12.70;1.00
14252;DHT22;7210;51.502;10.722;2023-05-07T10:08:11;12.60;1.00
14252;DHT22;7210;51.502;10.722;2023-05-07T10:10:46;12.50;1.00
14252;DHT22;7210;51.502;10.722;2023-05-07T10:13:19;12.30;1.00
14252;DHT22;7210;51.502;10.722;2023-05-07T10:15:49;12.30;1.00
14252;DHT22;7210;51.502;10.722;2023-05-07T10:18:20;12.30;1.00
14252;DHT22;7210;51.502;10.722;2023-05-07T10:20:52;12.30;1.00
14252;DHT22;7210;51.502;10.722;2023-05-07T10:23:24;12.20;1.00
14252;DHT22;7210;51.502;10.722;2023-05-07T10:25:57;12.30;1.00
14252;DHT22;7210;51.502;10.722;2023-05-07T10:28:26;12.50;1.00
14252;DHT22;7210;51.502;10.722;2023-05-07T10:31:05;12.90;1.00
14252;DHT22;7210;51.502;10.722;2023-05-07T10:33:45;13.10;1.00
14252;DHT22;7210;51.502;10.722;2023-05-07T10:36:18;13.10;1.00
14252;DHT22;7210;51.502;10.722;2023-05-07T10:38:48;13.40;1.00
14252;DHT22;7210;51.502;10.722;2023-05-07T10:41:16;13.30;1.00
14252;DHT22;7210;51.502;10.722;2023-05-07T10:43:46;13.20;1.00
14252;DHT22;7210;51.502;10.722;2023-05-07T10:46:22;13.20;1.00
14252;DHT22;7210;51.502;10.722;2023-05-07T10:49:10;13.00;1.00
14252;DHT22;7210;51.502;10.722;2023-05-07T10:52:11;12.90;1.00
14252;DHT22;7210;51.502;10.722;2023-05-07T10:54:46;12.70;1.00
14252;DHT22;7210;51.502;10.722;2023-05-07T10:57:34;12.70;1.00
14252;DHT22;7210;51.502;10.722;2023-05-07T11:03:30;13.00;1.00
14252;DHT22;7210;51.502;10.722;2023-05-07T11:06:09;13.20;1.00
14252;DHT22;7210;51.502;10.722;2023-05-07T11:08:55;13.30;1.00
14252;DHT22;7210;51.502;10.722;2023-05-07T11:11:47;13.40;1.00
14252;DHT22;7210;51.502;10.722;2023-05-07T11:14:44;13.60;1.00
14252;DHT22;7210;51.502;10.722;2023-05-07T11:17:19;13.70;1.00
14252;DHT22;7210;51.502;10.722;2023-05-07T11:19:54;13.70;1.00
14252;DHT22;7210;51.502;10.722;2023-05-07T11:22:37;13.70;1.00
14252;DHT22;7210;51.502;10.722;2023-05-07T11:25:25;13.80;1.00
14252;DHT22;7210;51.502;10.722;2023-05-07T11:28:06;14.10;1.00
14252;DHT22;7210;51.502;10.722;2023-05-07T11:30:41;14.20;1.00
14252;DHT22;7210;51.502;10.722;2023-05-07T11:33:12;14.10;1.00
14252;DHT22;7210;51.502;10.722;2023-05-07T11:35:44;14.30;1.00
14252;DHT22;7210;51.502;10.722;2023-05-07T11:38:14;14.50;1.00
14252;DHT22;7210;51.502;10.722;2023-05-07T11:40:49;14.50;1.00
14252;DHT22;7210;51.502;10.722;2023-05-07T11:43:18;14.50;1.00
14252;DHT22;7210;51.502;10.722;2023-05-07T11:45:52;14.40;1.00
14252;DHT22;7210;51.502;10.722;2023-05-07T11:48:21;14.30;1.00
14252;DHT22;7210;51.502;10.722;2023-05-07T11:50:50;14.60;1.00
14252;DHT22;7210;51.502;10.722;2023-05-07T11:53:18;14.80;1.00
14252;DHT22;7210;51.502;10.722;2023-05-07T11:55:52;15.00;1.00
14252;DHT22;7210;51.502;10.722;2023-05-07T11:58:23;15.40;1.00
14252;DHT22;7210;51.502;10.722;2023-05-07T12:00:51;15.50;1.00
14252;DHT22;7210;51.502;10.722;2023-05-07T12:03:19;15.40;1.00
14252;DHT22;7210;51.502;10.722;2023-05-07T12:05:47;15.20;1.00
14252;DHT22;7210;51.502;10.722;2023-05-07T12:08:15;15.10;1.00
14252;DHT22;7210;51.502;10.722;2023-05-07T12:10:44;15.20;1.00
14252;DHT22;7210;51.502;10.722;2023-05-07T12:13:16;15.20;1.00
14252;DHT22;7210;51.502;10.722;2023-05-07T12:15:45;15.30;1.00
14252;DHT22;7210;51.502;10.722;2023-05-07T12:18:13;15.30;1.00
14252;DHT22;7210;51.502;10.722;2023-05-07T12:20:41;15.40;1.00
14252;DHT22;7210;51.502;10.722;2023-05-07T12:23:09;15.40;1.00
14252;DHT22;7210;51.502;10.722;2023-05-07T12:25:38;15.50;1.00
14252;DHT22;7210;51.502;10.722;2023-05-07T12:28:13;15.50;1.00
14252;DHT22;7210;51.502;10.722;2023-05-07T12:30:41;15.40;1.00
14252;DHT22;7210;51.502;10.722;2023-05-07T12:33:11;15.40;1.00
14252;DHT22;7210;51.502;10.722;2023-05-07T12:35:40;15.30;1.00
14252;DHT22;7210;51.502;10.722;2023-05-07T12:38:09;15.30;1.00
14252;DHT22;7210;51.502;10.722;2023-05-07T12:40:41;15.50;1.00
14252;DHT22;7210;51.502;10.722;2023-05-07T12:43:15;15.40;1.00
14252;DHT22;7210;51.502;10.722;2023-05-07T12:45:44;15.50;1.00
14252;DHT22;7210;51.502;10.722;2023-05-07T12:48:13;15.70;1.00
14252;DHT22;7210;51.502;10.722;2023-05-07T12:50:41;16.10;1.00
14252;DHT22;7210;51.502;10.722;2023-05-07T12:53:11;16.20;1.00
14252;DHT22;7210;51.502;10.722;2023-05-07T12:55:43;16.30;1.00
14252;DHT22;7210;51.502;10.722;2023-05-07T12:58:16;16.20;1.00
14252;DHT22;7210;51.502;10.722;2023-05-07T13:00:43;16.30;1.00
14252;DHT22;7210;51.502;10.722;2023-05-07T13:03:32;16.30;1.00
14252;DHT22;7210;51.502;10.722;2023-05-07T13:06:03;16.30;1.00
14252;DHT22;7210;51.502;10.722;2023-05-07T13:08:33;16.50;1.00
14252;DHT22;7210;51.502;10.722;2023-05-07T13:11:03;16.50;1.00
14252;DHT22;7210;51.502;10.722;2023-05-07T13:13:31;16.30;1.00
14252;DHT22;7210;51.502;10.722;2023-05-07T13:16:05;16.10;1.00
14252;DHT22;7210;51.502;10.722;2023-05-07T13:18:35;16.10;1.00
14252;DHT22;7210;51.502;10.722;2023-05-07T13:21:03;16.10;1.00
14252;DHT22;7210;51.502;10.722;2023-05-07T13:23:31;16.10;1.00
14252;DHT22;7210;51.502;10.722;2023-05-07T13:25:58;16.50;1.00
14252;DHT22;7210;51.502;10.722;2023-05-07T13:28:25;16.70;1.00
14252;DHT22;7210;51.502;10.722;2023-05-07T13:30:53;17.20;1.00
14252;DHT22;7210;51.502;10.722;2023-05-07T13:33:20;17.50;1.00
14252;DHT22;7210;51.502;10.722;2023-05-07T13:35:49;17.60;1.00
14252;DHT22;7210;51.502;10.722;2023-05-07T13:38:16;17.70;1.00
14252;DHT22;7210;51.502;10.722;2023-05-07T13:40:43;17.50;1.00
14252;DHT22;7210;51.502;10.722;2023-05-07T13:43:15;17.50;1.00
14252;DHT22;7210;51.502;10.722;2023-05-07T13:45:44;17.40;1.00
14252;DHT22;7210;51.502;10.722;2023-05-07T13:48:11;17.50;1.00
14252;DHT22;7210;51.502;10.722;2023-05-07T13:50:39;17.60;1.00
14252;DHT22;7210;51.502;10.722;2023-05-07T13:53:08;17.70;1.00
14252;DHT22;7210;51.502;10.722;2023-05-07T13:55:40;17.60;1.00
14252;DHT22;7210;51.502;10.722;2023-05-07T13:58:07;17.50;1.00
14252;DHT22;7210;51.502;10.722;2023-05-07T14:00:34;17.20;1.00
14252;DHT22;7210;51.502;10.722;2023-05-07T14:03:05;17.20;1.00
14252;DHT22;7210;51.502;10.722;2023-05-07T14:05:32;17.30;1.00
14252;DHT22;7210;51.502;10.722;2023-05-07T14:07:59;17.30;1.00
14252;DHT22;7210;51.502;10.722;2023-05-07T14:10:28;17.50;1.00
14252;DHT22;7210;51.502;10.722;2023-05-07T14:12:57;17.60;1.00
14252;DHT22;7210;51.502;10.722;2023-05-07T14:15:25;17.50;1.00
14252;DHT22;7210;51.502;10.722;2023-05-07T14:17:52;17.50;1.00
14252;DHT22;7210;51.502;10.722;2023-05-07T14:20:20;17.30;1.00
14252;DHT22;7210;51.502;10.722;2023-05-07T14:22:57;17.30;1.00
14252;DHT22;7210;51.502;10.722;2023-05-07T14:25:25;17.20;1.00
14252;DHT22;7210;51.502;10.722;2023-05-07T14:27:53;17.10;1.00
14252;DHT22;7210;51.502;10.722;2023-05-07T14:30:20;17.10;1.00
14252;DHT22;7210;51.502;10.722;2023-05-07T14:32:52;17.10;1.00
14252;DHT22;7210;51.502;10.722;2023-05-07T14:35:21;17.00;1.00
14252;DHT22;7210;51.502;10.722;2023-05-07T14:37:49;16.90;1.00
14252;DHT22;7210;51.502;10.722;2023-05-07T14:40:22;16.90;1.00
14252;DHT22;7210;51.502;10.722;2023-05-07T14:42:49;16.90;1.00
14252;DHT22;7210;51.502;10.722;2023-05-07T14:45:17;16.70;1.00
14252;DHT22;7210;51.502;10.722;2023-05-07T14:47:46;16.70;1.00
14252;DHT22;7210;51.502;10.722;2023-05-07T14:50:22;16.70;1.00
14252;DHT22;7210;51.502;10.722;2023-05-07T14:52:49;16.60;1.00
14252;DHT22;7210;51.502;10.722;2023-05-07T14:55:16;16.60;1.00
14252;DHT22;7210;51.502;10.722;2023-05-07T14:57:43;16.70;1.00
14252;DHT22;7210;51.502;10.722;2023-05-07T15:00:11;16.50;1.00
14252;DHT22;7210;51.502;10.722;2023-05-07T15:02:40;16.40;1.00
14252;DHT22;7210;51.502;10.722;2023-05-07T15:05:10;16.20;1.00
14252;DHT22;7210;51.502;10.722;2023-05-07T15:07:37;16.20;1.00
14252;DHT22;7210;51.502;10.722;2023-05-07T15:10:05;16.10;1.00
14252;DHT22;7210;51.502;10.722;2023-05-07T15:12:33;16.00;1.00
14252;DHT22;7210;51.502;10.722;2023-05-07T15:15:00;15.80;1.00
14252;DHT22;7210;51.502;10.722;2023-05-07T15:17:27;15.90;1.00
14252;DHT22;7210;51.502;10.722;2023-05-07T15:19:56;15.70;1.00
14252;DHT22;7210;51.502;10.722;2023-05-07T15:22:28;15.60;1.00
14252;DHT22;7210;51.502;10.722;2023-05-07T15:24:55;15.70;1.00
14252;DHT22;7210;51.502;10.722;2023-05-07T15:27:40;15.60;1.00
14252;DHT22;7210;51.502;10.722;2023-05-07T15:30:10;15.50;1.00
14252;DHT22;7210;51.502;10.722;2023-05-07T15:32:39;15.50;1.00
14252;DHT22;7210;51.502;10.722;2023-05-07T15:35:09;15.40;1.00
14252;DHT22;7210;51.502;10.722;2023-05-07T15:37:36;15.30;1.00
14252;DHT22;7210;51.502;10.722;2023-05-07T15:40:05;15.20;1.00
14252;DHT22;7210;51.502;10.722;2023-05-07T15:42:34;15.20;1.00
14252;DHT22;7210;51.502;10.722;2023-05-07T15:45:01;15.40;1.00
14252;DHT22;7210;51.502;10.722;2023-05-07T15:47:33;15.30;1.00
14252;DHT22;7210;51.502;10.722;2023-05-07T15:50:01;15.20;1.00
14252;DHT22;7210;51.502;10.722;2023-05-07T15:52:29;15.20;1.00
14252;DHT22;7210;51.502;10.722;2023-05-07T15:54:57;15.20;1.00
14252;DHT22;7210;51.502;10.722;2023-05-07T15:57:34;15.20;1.00
14252;DHT22;7210;51.502;10.722;2023-05-07T16:00:01;15.10;1.00
14252;DHT22;7210;51.502;10.722;2023-05-07T16:02:46;15.20;1.00